Shenandoah National Park, VA

2:12 AM EDT on October 31, 2014 (GMT -0400)
Lord Willing Dr. | Change Station
CLOSE
Current Station
Personal Weather Station
Location: Culpeper, VA
Elevation: 499 ft
Nearby Weather Stations
Active Advisory: Frost Advisory

Elev 499 ft 38.54 °N, 77.94 °W | Updated 1 second ago

Clear
Clear
38.7 °F
Feels Like 39 °F
N
0.0
Wind Variable Wind from North
Gusts 0.0 mph

Today
High -- | Low -- °F
--% Chance of Precip.
Yesterday
High -- | Low -- °F
Precip. -- in
7:37 AM 6:12 PM
First Quarter, 52% visible
Pressure 30.04 in
Visibility 7.0 miles
Clouds Clear
Windchill 39 °F
Dew Point 35 °F
Humidity 87%
Rainfall 0.00 in
Snow Depth Not available.
UV 0 out of 12
Pollen .80 out of 12
Air Quality Not available.
Flu Activity Not available.
METAR KCJR 310555Z AUTO 00000KT 7SM CLR 01/01 A3004 RMK AO2

More Conditions Fewer Conditions

Pressure 30.04 in
Visibility 7.0 miles
Clouds Clear
Windchill 39 °F
Dew Point 35 °F
Humidity 87%
Rainfall 0.00 in
Snow Depth Not available.
UV 0 out of 12
Pollen .80 out of 12
Air Quality Not available.
Flu Activity Not available.
METAR KCJR 310555Z AUTO 00000KT 7SM CLR 01/01 A3004 RMK AO2

More Conditions Fewer Conditions

10-Day Weather Forecast

Almanac

Astronomy

Oct. 31, 2014 Rise Set
Actual Time
Civil Twilight
Nautical Twilight
Astronomical Twilight
Moon
Length of Visible Light
Length of Day
Tomorrow will be .
, % of the Moon is Illuminated

Today's Extremes

State Highs State Lows

Community

WunderPhotos

Upload Photos

1,766,571 photos uploaded!

WunderBlogs® & News

Nearby

Air Quality

  Air Quality AQ Index Pollutant
Not available.

Snow Depth

Station Depth Elevation

Earthquake Activity

City Distance Mag. Time & Date
Minimum magnitude displayed is 2.5.

Coastal Water Temperatures

Place Temperature

Nearby Weather Stations